KGLR/GLR METAR and TAF weather

Enter ICAO airport designator
Station Type Date Time Source
KGLR METAR 2022/08/12 15:53 UTC NOAA

KGLR 121553Z AUTO 33005KT 10SM CLR 23/05 A3028 RMK AO2 SLP251 T02280050


Station Type Date Time Source
KGLR Decoded METAR 2022/08/12 15:53 UTC NOAA

GAYLORD REGIONAL AIRPORT, MI, United States (KGLR) 45-01N 84-41W 407M
Aug 12, 2022 - 11:53 AM EDT / 2022.08.12 1553 UTC
Wind: from the NNW (330 degrees) at 6 MPH (5 KT):0
Visibility: 10 mile(s):0
Sky conditions: clear
Temperature: 73.0 F (22.8 C)
Dew Point: 41.0 F (5.0 C)
Relative Humidity: 31%
Pressure (altimeter): 30.28 in. Hg (1025 hPa)
ob: KGLR 121553Z AUTO 33005KT 10SM CLR 23/05 A3028 RMK AO2 SLP251 T02280050
cycle: 16

Station Type Date Time Source
KGLR TAF UTC NOAA

Error!

Example: see airport list